Time;durP1;ratioP1;P1;durP2;ratioP2;P2;SDS_P1;SDS_P2;PMS_P1;PMS_P2;Temp;Humidity;BMP_temperature;BMP_pressure;BME280_temperature;BME280_humidity;BME280_pressure;Samples;Min_cycle;Max_cycle;Signal;HPM_P1;HPM_P2
2023/07/06 00:00:10;;;;;;;4.18;1.88;;;;;;;27.00;52.84;99463.75;5054374;28;20043;-79
2023/07/06 00:02:36;;;;;;;5.75;2.17;;;;;;;26.99;52.76;99449.53;5054254;28;20029;-78
2023/07/06 00:05:02;;;;;;;4.68;2.05;;;;;;;27.00;52.96;99448.53;5054091;28;20025;-78
2023/07/06 00:07:27;;;;;;;4.00;1.95;;;;;;;27.00;52.59;99453.88;5054510;28;20013;-79
2023/07/06 00:09:53;;;;;;;4.07;2.17;;;;;;;26.99;53.04;99456.69;5054364;28;20025;-78
2023/07/06 00:12:19;;;;;;;3.40;1.90;;;;;;;26.98;52.93;99455.88;5054276;28;20025;-78
2023/07/06 00:14:44;;;;;;;3.47;1.92;;;;;;;26.98;53.10;99453.19;5054528;28;20067;-79
2023/07/06 00:17:13;;;;;;;3.53;1.90;;;;;;;26.98;52.94;99444.28;5053582;28;20423;-79
2023/07/06 00:19:40;;;;;;;3.95;2.03;;;;;;;26.98;53.02;99436.25;5052840;28;20021;-78
2023/07/06 00:22:08;;;;;;;2.97;1.75;;;;;;;26.98;53.08;99437.13;5054103;28;20029;-78
2023/07/06 00:24:33;;;;;;;3.97;2.00;;;;;;;26.96;53.01;99425.69;5054141;28;20469;-82
2023/07/06 00:26:59;;;;;;;4.13;2.17;;;;;;;26.97;52.98;99427.38;5054025;28;20060;-81
2023/07/06 00:29:28;;;;;;;3.03;1.80;;;;;;;26.96;52.89;99441.75;5053961;28;20029;-79
2023/07/06 00:32:04;;;;;;;4.32;2.03;;;;;;;26.97;53.12;99448.78;5054037;28;20029;-78
2023/07/06 00:34:33;;;;;;;3.97;2.20;;;;;;;26.97;52.92;99458.66;5053468;28;20029;-80
2023/07/06 00:36:59;;;;;;;3.67;2.03;;;;;;;26.95;53.32;99456.13;5065775;28;20173;-80
2023/07/06 00:39:26;;;;;;;3.90;2.03;;;;;;;26.96;52.69;99449.78;5073871;28;20093;-80
2023/07/06 00:41:52;;;;;;;4.63;2.20;;;;;;;26.96;53.09;99465.00;5057713;28;20035;-80
2023/07/06 00:44:45;;;;;;;5.22;2.08;;;;;;;26.94;53.13;99465.13;5068617;28;20021;-78
2023/07/06 00:47:12;;;;;;;3.33;2.13;;;;;;;26.95;53.02;99469.50;5073568;28;20031;-77
2023/07/06 00:49:38;;;;;;;4.90;2.10;;;;;;;26.94;53.29;99475.84;5073139;28;20028;-78
2023/07/06 00:52:04;;;;;;;4.35;2.30;;;;;;;26.94;52.84;99470.47;5053573;28;20464;-78
2023/07/06 00:54:31;;;;;;;3.28;2.10;;;;;;;26.94;53.23;99465.13;5053675;28;20024;-79
2023/07/06 00:56:58;;;;;;;3.75;2.17;;;;;;;26.94;52.88;99455.25;5053519;28;20377;-77
2023/07/06 00:59:29;;;;;;;4.05;2.05;;;;;;;26.94;52.94;99454.44;5053313;28;20099;-77
2023/07/06 01:01:59;;;;;;;4.20;2.00;;;;;;;26.94;53.10;99435.69;5053450;28;20037;-78
2023/07/06 01:04:28;;;;;;;4.88;2.58;;;;;;;26.93;53.17;99420.59;5053102;28;20028;-76
2023/07/06 01:06:54;;;;;;;3.90;1.90;;;;;;;26.92;52.92;99408.22;5053425;28;20047;-78
2023/07/06 01:09:20;;;;;;;4.03;1.90;;;;;;;26.90;53.16;99420.81;5053297;28;20037;-78
2023/07/06 01:11:47;;;;;;;3.97;2.03;;;;;;;26.91;52.97;99423.41;5053059;28;20021;-80
2023/07/06 01:14:13;;;;;;;3.78;2.03;;;;;;;26.90;53.00;99404.75;5052903;28;20382;-76
2023/07/06 01:16:43;;;;;;;4.63;2.00;;;;;;;26.90;52.98;99404.75;5052908;28;20041;-79
2023/07/06 01:19:36;;;;;;;4.28;2.50;;;;;;;26.87;53.39;99399.69;5052655;28;20503;-81
2023/07/06 01:22:34;;;;;;;3.42;1.80;;;;;;;26.88;53.05;99406.75;5052791;28;20079;-78
2023/07/06 01:25:08;;;;;;;4.05;2.03;;;;;;;26.88;53.23;99406.75;5029990;28;20041;-78
2023/07/06 01:27:59;;;;;;;4.30;2.00;;;;;;;26.90;53.44;99423.50;5030676;28;20037;-80
2023/07/06 01:30:36;;;;;;;3.95;2.13;;;;;;;26.90;53.24;99431.53;5030270;28;20040;-77
2023/07/06 01:33:13;;;;;;;3.75;1.80;;;;;;;26.89;53.17;99432.53;5013687;28;20506;-79
2023/07/06 01:35:50;;;;;;;5.00;2.88;;;;;;;26.88;53.41;99430.84;5030532;28;20079;-77
2023/07/06 01:38:16;;;;;;;3.65;2.03;;;;;;;26.89;53.14;99424.50;5013984;28;20033;-78
2023/07/06 01:40:42;;;;;;;3.40;2.03;;;;;;;26.91;52.99;99422.50;5013751;28;20422;-78
2023/07/06 01:43:09;;;;;;;3.33;2.00;;;;;;;26.91;52.99;99419.84;5030453;28;20041;-79
2023/07/06 01:45:35;;;;;;;3.42;1.98;;;;;;;26.89;53.03;99409.28;5030352;28;20017;-77
2023/07/06 01:48:10;;;;;;;5.18;2.40;;;;;;;26.90;53.06;99404.75;5030191;28;20458;-77
2023/07/06 01:50:57;;;;;;;3.25;1.95;;;;;;;26.90;53.00;99399.41;5030216;28;20018;-80
2023/07/06 01:53:39;;;;;;;4.47;2.20;;;;;;;26.91;52.99;99402.00;5030255;28;20460;-76
2023/07/06 01:56:07;;;;;;;3.90;2.00;;;;;;;26.89;53.46;99403.06;5029960;28;20437;-79
2023/07/06 01:58:47;;;;;;;5.68;2.10;;;;;;;26.89;53.04;99395.91;5029966;28;20536;-79
2023/07/06 02:01:23;;;;;;;4.47;2.22;;;;;;;26.89;53.28;99397.72;5036385;28;20090;-79
2023/07/06 02:03:50;;;;;;;2.47;1.63;;;;;;;26.89;53.48;99384.34;5052283;28;20079;-79
2023/07/06 02:06:17;;;;;;;3.22;2.13;;;;;;;26.88;53.21;99382.63;5052164;28;20040;-77
2023/07/06 02:08:42;;;;;;;4.55;2.40;;;;;;;26.88;53.45;99390.66;5052197;28;20025;-79
2023/07/06 02:11:10;;;;;;;5.07;2.40;;;;;;;26.87;53.14;99378.28;5052377;28;20398;-78
2023/07/06 02:13:35;;;;;;;4.20;2.22;;;;;;;26.86;53.07;99377.41;5051690;28;20028;-78
2023/07/06 02:16:04;;;;;;;4.22;2.00;;;;;;;26.84;52.98;99367.81;5057347;28;20085;-79
2023/07/06 02:18:30;;;;;;;2.80;1.90;;;;;;;26.81;52.99;99369.78;5072300;28;20024;-77
2023/07/06 02:20:57;;;;;;;3.15;1.88;;;;;;;26.81;53.37;99366.25;5062637;28;20477;-78
2023/07/06 02:23:23;;;;;;;2.65;1.77;;;;;;;26.83;53.34;99360.78;5052141;28;20021;-78
2023/07/06 02:25:49;;;;;;;2.90;2.00;;;;;;;26.80;53.11;99352.03;5051507;28;20078;-78
2023/07/06 02:28:15;;;;;;;2.90;1.92;;;;;;;26.80;53.27;99352.03;5058515;28;20024;-78
2023/07/06 02:30:40;;;;;;;5.00;2.30;;;;;;;26.79;53.38;99334.25;5066394;28;20079;-78
2023/07/06 02:33:06;;;;;;;3.63;1.80;;;;;;;26.76;53.56;99329.19;5050981;28;20464;-79
2023/07/06 02:35:34;;;;;;;3.70;2.22;;;;;;;26.76;53.62;99326.53;5051582;28;20021;-80
2023/07/06 02:37:59;;;;;;;4.38;2.00;;;;;;;26.77;53.81;99330.03;5051633;28;20025;-82
2023/07/06 02:40:25;;;;;;;4.82;2.22;;;;;;;26.76;53.63;99317.63;5051883;28;20023;-80
2023/07/06 02:42:50;;;;;;;3.58;2.03;;;;;;;26.75;53.46;99307.91;5056057;28;20031;-79
2023/07/06 02:45:17;;;;;;;3.85;2.00;;;;;;;26.74;53.68;99312.44;5055598;28;20021;-79
2023/07/06 02:47:43;;;;;;;4.47;2.17;;;;;;;26.75;53.96;99313.25;5056001;28;20100;-78
2023/07/06 02:50:11;;;;;;;4.95;2.50;;;;;;;26.73;53.39;99313.41;5055909;28;20560;-78
2023/07/06 02:52:42;;;;;;;3.88;2.50;;;;;;;26.74;53.83;99309.75;5055833;28;20028;-77
2023/07/06 02:55:09;;;;;;;3.65;2.08;;;;;;;26.73;53.91;99317.91;5055747;28;20131;-79
2023/07/06 02:57:39;;;;;;;3.42;2.00;;;;;;;26.71;53.65;99320.72;5060438;28;20044;-81
2023/07/06 03:00:11;;;;;;;2.95;1.95;;;;;;;26.71;53.48;99328.75;5075473;28;20028;-78
2023/07/06 03:02:37;;;;;;;4.10;2.00;;;;;;;26.73;53.71;99332.13;5058164;28;20602;-78
2023/07/06 03:05:04;;;;;;;3.33;1.90;;;;;;;26.71;53.63;99335.91;5055633;28;20017;-79
2023/07/06 03:07:30;;;;;;;3.72;2.25;;;;;;;26.72;53.64;99341.16;5055174;28;20029;-78
2023/07/06 03:09:57;;;;;;;3.85;2.28;;;;;;;26.71;53.37;99342.13;5055232;28;20159;-80
2023/07/06 03:12:23;;;;;;;3.55;2.15;;;;;;;26.71;53.69;99343.94;5055332;28;20021;-79
2023/07/06 03:14:49;;;;;;;3.47;2.10;;;;;;;26.67;53.67;99343.38;5055120;28;20033;-79
2023/07/06 03:17:14;;;;;;;4.88;2.42;;;;;;;26.69;53.76;99341.44;5055424;28;20485;-79
2023/07/06 03:19:41;;;;;;;4.60;2.10;;;;;;;26.72;53.80;99335.78;5055518;28;20036;-79
2023/07/06 03:22:07;;;;;;;3.67;2.35;;;;;;;26.67;53.70;99327.31;5055415;28;20037;-76
2023/07/06 03:24:33;;;;;;;4.32;2.10;;;;;;;26.68;53.42;99316.47;5055310;28;20037;-78
2023/07/06 03:27:00;;;;;;;4.10;2.33;;;;;;;26.68;53.51;99320.97;5055378;28;20405;-78
2023/07/06 03:29:26;;;;;;;4.22;2.40;;;;;;;26.67;53.88;99319.28;5054976;28;20035;-78
2023/07/06 03:31:52;;;;;;;3.28;2.00;;;;;;;26.65;53.53;99313.22;5055371;28;20116;-78
2023/07/06 03:34:19;;;;;;;3.45;1.95;;;;;;;26.65;53.59;99310.56;5055205;28;20028;-79
2023/07/06 03:36:44;;;;;;;4.20;2.45;;;;;;;26.63;53.46;99301.81;5055265;28;20025;-78
2023/07/06 03:39:12;;;;;;;3.00;1.83;;;;;;;26.64;53.63;99298.16;5055052;28;20028;-79
2023/07/06 03:41:39;;;;;;;3.80;2.28;;;;;;;26.61;53.91;99298.41;5054977;28;20029;-78
2023/07/06 03:44:05;;;;;;;4.07;2.40;;;;;;;26.61;53.48;99301.09;5054117;28;20025;-79
2023/07/06 03:46:33;;;;;;;3.67;1.90;;;;;;;26.62;54.01;99294.75;5055203;28;20433;-78
2023/07/06 03:48:59;;;;;;;4.15;1.83;;;;;;;26.58;53.54;99294.19;5054810;28;20547;-79
2023/07/06 03:51:25;;;;;;;3.88;1.80;;;;;;;26.60;53.80;99288.72;5054928;28;20021;-79
2023/07/06 03:53:50;;;;;;;3.50;2.05;;;;;;;26.58;53.58;99285.31;5054985;28;20028;-80
2023/07/06 03:56:18;;;;;;;3.08;1.80;;;;;;;26.56;53.70;99287.28;5054699;28;20021;-78
2023/07/06 03:58:44;;;;;;;2.92;1.80;;;;;;;26.56;53.73;99284.59;5054262;28;20045;-79
2023/07/06 04:01:10;;;;;;;3.38;1.88;;;;;;;26.53;53.50;99285.72;5054803;28;20532;-79
2023/07/06 04:03:35;;;;;;;3.33;2.05;;;;;;;26.57;53.99;99281.78;5054673;28;20025;-81
2023/07/06 04:06:03;;;;;;;3.08;1.83;;;;;;;26.56;53.54;99277.44;5054641;28;20473;-79
2023/07/06 04:08:29;;;;;;;4.88;1.85;;;;;;;26.55;53.51;99283.78;5054540;28;20029;-76
2023/07/06 04:10:55;;;;;;;3.45;2.00;;;;;;;26.52;53.86;99274.19;5054214;28;20394;-79
2023/07/06 04:13:20;;;;;;;3.10;1.80;;;;;;;26.54;53.49;99280.22;5054444;28;20047;-82
2023/07/06 04:15:48;;;;;;;2.45;1.60;;;;;;;26.52;53.36;99265.28;5054482;28;20029;-76
2023/07/06 04:18:17;;;;;;;3.67;1.90;;;;;;;26.49;53.53;99262.91;5054165;28;20037;-78
2023/07/06 04:20:42;;;;;;;3.58;1.88;;;;;;;26.48;53.58;99256.69;5054499;28;20029;-77
2023/07/06 04:23:10;;;;;;;3.65;1.70;;;;;;;26.49;53.49;99261.06;5054193;28;20032;-78
2023/07/06 04:25:36;;;;;;;3.17;1.83;;;;;;;26.51;53.60;99261.78;5053806;28;20021;-77
2023/07/06 04:28:10;;;;;;;2.83;1.40;;;;;;;26.49;53.60;99257.56;5054264;28;20029;-80
2023/07/06 04:30:38;;;;;;;3.85;1.80;;;;;;;26.45;53.56;99261.47;5054288;28;20033;-80
2023/07/06 04:33:04;;;;;;;2.90;1.55;;;;;;;26.47;53.93;99257.69;5054210;28;20086;-81
2023/07/06 04:35:31;;;;;;;3.47;2.10;;;;;;;26.49;53.78;99250.34;5054137;28;20120;-80
2023/07/06 04:37:59;;;;;;;3.72;1.90;;;;;;;26.44;53.68;99244.56;5054237;28;20428;-79
2023/07/06 04:40:26;;;;;;;2.53;1.60;;;;;;;26.43;53.45;99237.53;5053728;28;20033;-78
2023/07/06 04:42:52;;;;;;;4.28;1.85;;;;;;;26.43;53.65;99242.88;5053916;28;20028;-79
2023/07/06 04:45:19;;;;;;;3.85;1.90;;;;;;;26.43;53.52;99237.53;5054323;28;20033;-80
2023/07/06 04:47:45;;;;;;;2.95;1.67;;;;;;;26.45;53.54;99245.41;5053775;28;20385;-81
2023/07/06 04:50:17;;;;;;;2.63;1.75;;;;;;;26.43;53.61;99242.88;5053872;28;20104;-82
2023/07/06 04:52:44;;;;;;;3.22;1.70;;;;;;;26.41;53.56;99239.50;5053792;28;20029;-78
2023/07/06 04:55:10;;;;;;;3.05;1.80;;;;;;;26.36;53.89;99241.72;5053247;28;20465;-80
2023/07/06 04:57:37;;;;;;;3.85;1.88;;;;;;;26.33;54.22;99236.66;5053457;28;20021;-81
2023/07/06 05:00:46;;;;;;;3.65;1.92;;;;;;;26.30;54.06;99247.59;5052290;28;20067;-80
2023/07/06 05:02:53;;;;;;;3.53;1.65;;;;;;;26.26;54.14;99247.88;5050344;28;20509;-78
2023/07/06 05:05:19;;;;;;;3.22;1.90;;;;;;;26.30;54.21;99235.09;5053096;28;20017;-80
2023/07/06 05:07:46;;;;;;;3.22;1.80;;;;;;;26.33;54.16;99242.00;5053557;28;20111;-80
2023/07/06 05:10:12;;;;;;;3.67;1.90;;;;;;;26.33;53.85;99248.19;5053328;28;20024;-79
2023/07/06 05:12:39;;;;;;;2.90;1.65;;;;;;;26.31;54.08;99251.97;5053622;28;20028;-79
2023/07/06 05:15:06;;;;;;;2.80;1.70;;;;;;;26.29;54.17;99241.41;5052063;28;20025;-78
2023/07/06 05:17:32;;;;;;;3.72;1.85;;;;;;;26.30;54.49;99242.25;5052902;28;20450;-80
2023/07/06 05:19:58;;;;;;;3.38;1.90;;;;;;;26.25;54.65;99240.81;5053005;28;20024;-79
2023/07/06 05:22:25;;;;;;;3.35;1.80;;;;;;;26.23;54.89;99248.16;5053765;28;20025;-80
2023/07/06 05:24:50;;;;;;;3.42;1.67;;;;;;;26.27;55.02;99254.94;5054451;28;20116;-79
2023/07/06 05:27:16;;;;;;;3.60;1.80;;;;;;;26.30;55.10;99258.31;5052703;28;20540;-78
2023/07/06 05:29:41;;;;;;;3.40;1.77;;;;;;;26.30;55.39;99252.97;5053368;28;20025;-83
2023/07/06 05:32:08;;;;;;;3.58;1.65;;;;;;;26.32;55.35;99251.00;5053329;28;20021;-79
2023/07/06 05:34:33;;;;;;;3.28;1.88;;;;;;;26.33;55.11;99256.22;5053308;28;20521;-82
2023/07/06 05:37:00;;;;;;;3.85;1.90;;;;;;;26.36;55.07;99255.09;5053071;28;20036;-83
2023/07/06 05:39:25;;;;;;;3.92;2.10;;;;;;;26.37;54.54;99259.47;5052763;28;20025;-79
2023/07/06 05:41:51;;;;;;;4.15;2.28;;;;;;;26.39;54.82;99262.88;5053067;28;20381;-82
2023/07/06 05:44:16;;;;;;;4.05;2.20;;;;;;;26.42;54.24;99267.94;5052814;28;20067;-80
2023/07/06 05:46:41;;;;;;;4.22;1.90;;;;;;;26.42;54.86;99261.75;5052996;28;20396;-81
2023/07/06 05:49:07;;;;;;;3.55;2.20;;;;;;;26.45;54.68;99273.03;5052586;28;20096;-80
2023/07/06 05:51:32;;;;;;;4.88;2.30;;;;;;;26.45;54.21;99278.38;5052817;28;20036;-81
2023/07/06 05:53:58;;;;;;;5.72;2.92;;;;;;;26.47;54.51;99268.38;5052412;28;20021;-83
2023/07/06 05:56:24;;;;;;;5.07;2.45;;;;;;;26.49;54.24;99274.44;5052605;28;20021;-81
2023/07/06 05:58:51;;;;;;;5.40;2.50;;;;;;;26.49;54.50;99269.09;5056055;28;20101;-83
2023/07/06 06:01:19;;;;;;;5.68;2.70;;;;;;;26.51;54.02;99267.13;5059165;28;20028;-80
2023/07/06 06:03:45;;;;;;;5.70;2.50;;;;;;;26.51;54.01;99269.81;5052311;28;20040;-81
2023/07/06 06:06:11;;;;;;;4.90;2.50;;;;;;;26.50;54.46;99270.81;5052263;28;20025;-81
2023/07/06 06:08:36;;;;;;;6.45;2.50;;;;;;;26.54;54.37;99282.06;5057319;28;20370;-80
2023/07/06 06:11:02;;;;;;;5.75;2.95;;;;;;;26.53;53.87;99286.56;5052100;28;20100;-78
2023/07/06 06:13:28;;;;;;;4.65;2.80;;;;;;;26.54;53.94;99282.91;5052136;28;20021;-77
2023/07/06 06:15:54;;;;;;;5.30;3.00;;;;;;;26.53;54.00;99285.72;5060957;28;20048;-79
2023/07/06 06:18:20;;;;;;;5.15;2.83;;;;;;;26.54;53.85;99285.59;5054704;28;20397;-78
2023/07/06 06:20:47;;;;;;;5.75;2.60;;;;;;;26.54;53.97;99282.91;5052134;28;20024;-78
2023/07/06 06:23:13;;;;;;;5.28;2.67;;;;;;;26.56;54.23;99289.94;5051450;28;20158;-79
2023/07/06 06:25:39;;;;;;;4.47;2.55;;;;;;;26.57;53.81;99291.66;5051847;28;20043;-78
2023/07/06 06:28:05;;;;;;;6.15;2.45;;;;;;;26.54;53.96;99293.59;5051772;28;20021;-77
2023/07/06 06:30:31;;;;;;;5.78;2.90;;;;;;;26.53;53.90;99288.38;5052142;28;20063;-80
2023/07/06 06:32:57;;;;;;;5.20;2.63;;;;;;;26.55;53.83;99299.81;5061328;28;20433;-78
2023/07/06 06:35:28;;;;;;;4.93;2.60;;;;;;;26.56;53.80;99296.16;5072199;28;20028;-79
2023/07/06 06:37:54;;;;;;;4.15;2.30;;;;;;;26.54;53.96;99295.47;5056910;28;20489;-78
2023/07/06 06:40:21;;;;;;;5.57;2.63;;;;;;;26.56;54.12;99292.63;5052069;28;20036;-79
2023/07/06 06:42:48;;;;;;;4.38;2.25;;;;;;;26.57;53.71;99297.03;5051536;28;20029;-76
2023/07/06 06:45:15;;;;;;;5.28;2.38;;;;;;;26.55;53.62;99299.81;5051809;28;20048;-82
2023/07/06 06:47:40;;;;;;;3.92;2.00;;;;;;;26.55;53.97;99299.81;5051662;28;20116;-80
2023/07/06 06:50:09;;;;;;;4.85;2.45;;;;;;;26.54;54.07;99298.97;5051719;28;20044;-76
2023/07/06 06:52:35;;;;;;;5.10;2.28;;;;;;;26.53;54.21;99299.94;5051509;28;20080;-75
2023/07/06 06:55:01;;;;;;;5.00;2.40;;;;;;;26.53;53.92;99301.75;5051755;28;20013;-78
2023/07/06 06:57:29;;;;;;;5.65;2.63;;;;;;;26.52;54.10;99284.88;5051262;28;20027;-77
2023/07/06 06:59:55;;;;;;;4.28;2.20;;;;;;;26.53;54.06;99291.91;5051452;28;20083;-79
2023/07/06 07:02:22;;;;;;;5.25;2.60;;;;;;;26.53;54.06;99294.59;5051773;28;20470;-81
2023/07/06 07:04:49;;;;;;;5.70;2.10;;;;;;;26.54;54.00;99304.31;5051677;28;20017;-80
2023/07/06 07:07:16;;;;;;;7.32;2.80;;;;;;;26.52;53.73;99295.59;5051845;28;20017;-82
2023/07/06 07:09:41;;;;;;;4.55;2.50;;;;;;;26.52;54.07;99306.28;5051806;28;20075;-80
2023/07/06 07:12:07;;;;;;;3.92;2.10;;;;;;;26.52;53.60;99306.28;5051397;28;20051;-78
2023/07/06 07:14:33;;;;;;;4.82;2.30;;;;;;;26.53;54.09;99307.13;5051610;28;20021;-79
2023/07/06 07:16:58;;;;;;;4.80;2.25;;;;;;;26.52;54.18;99308.09;5051891;28;20485;-78
2023/07/06 07:19:24;;;;;;;5.75;2.67;;;;;;;26.51;53.97;99309.09;5051661;28;20021;-79
2023/07/06 07:21:50;;;;;;;5.00;2.35;;;;;;;26.53;54.40;99305.31;5052424;28;20029;-79
2023/07/06 07:24:16;;;;;;;5.97;2.67;;;;;;;26.54;54.06;99320.38;5052004;28;20087;-80
2023/07/06 07:26:43;;;;;;;5.50;2.72;;;;;;;26.52;54.47;99322.34;5052602;28;20469;-78
2023/07/06 07:29:08;;;;;;;4.57;2.53;;;;;;;26.53;53.92;99323.16;5055906;28;20048;-79
2023/07/06 07:31:33;;;;;;;6.15;2.67;;;;;;;26.54;54.04;99325.72;5055421;28;20485;-79
2023/07/06 07:33:59;;;;;;;7.18;2.60;;;;;;;26.56;54.09;99327.41;5054912;28;20032;-78
2023/07/06 07:36:24;;;;;;;5.25;2.30;;;;;;;26.56;53.98;99327.41;5054754;28;20033;-79
2023/07/06 07:38:51;;;;;;;4.75;2.67;;;;;;;26.56;54.14;99327.41;5054987;28;20029;-79
2023/07/06 07:41:20;;;;;;;3.90;2.00;;;;;;;26.57;53.89;99329.13;5055075;28;20115;-79
2023/07/06 07:43:48;;;;;;;4.53;2.22;;;;;;;26.56;54.20;99327.41;5055054;28;20037;-79
2023/07/06 07:46:17;;;;;;;4.28;2.40;;;;;;;26.58;53.81;99325.47;5054956;28;20028;-81
2023/07/06 07:48:45;;;;;;;3.72;2.08;;;;;;;26.59;54.10;99332.50;5054421;28;20025;-78
2023/07/06 07:51:13;;;;;;;5.55;2.38;;;;;;;26.59;54.15;99330.69;5054747;28;20388;-79
2023/07/06 07:53:40;;;;;;;4.80;2.55;;;;;;;26.60;54.10;99339.53;5055072;28;20029;-79
2023/07/06 07:56:07;;;;;;;4.45;2.40;;;;;;;26.59;53.75;99337.84;5054638;28;20507;-79
2023/07/06 07:58:34;;;;;;;5.30;2.50;;;;;;;26.60;53.93;99328.84;5054472;28;20045;-77
2023/07/06 08:01:02;;;;;;;4.22;2.13;;;;;;;26.60;53.87;99328.84;5054934;28;20090;-79
2023/07/06 08:03:28;;;;;;;5.82;2.58;;;;;;;26.60;54.06;99324.34;5054369;28;20106;-79
2023/07/06 08:05:55;;;;;;;5.45;2.50;;;;;;;26.62;54.03;99326.88;5053274;28;20067;-81
2023/07/06 08:08:24;;;;;;;4.25;2.47;;;;;;;26.62;54.07;99325.06;5054469;28;20029;-81
2023/07/06 08:10:51;;;;;;;4.63;2.45;;;;;;;26.64;53.93;99325.75;5054749;28;20028;-79
2023/07/06 08:13:17;;;;;;;4.47;2.03;;;;;;;26.66;53.95;99314.94;5054446;28;20025;-81
2023/07/06 08:15:44;;;;;;;5.22;2.35;;;;;;;26.66;53.56;99317.59;5054275;28;20029;-78
2023/07/06 08:18:10;;;;;;;4.22;2.40;;;;;;;26.66;53.50;99306.91;5053920;28;20705;-82
2023/07/06 08:20:37;;;;;;;5.20;2.60;;;;;;;26.68;53.41;99304.91;5054566;28;20035;-79
2023/07/06 08:23:09;;;;;;;3.88;2.30;;;;;;;26.68;53.36;99305.78;5054138;28;20041;-78
2023/07/06 08:25:38;;;;;;;5.28;2.42;;;;;;;26.70;53.37;99308.31;5054167;28;20021;-80
2023/07/06 08:28:06;;;;;;;4.13;2.42;;;;;;;26.71;53.25;99298.44;5054239;28;20090;-79
2023/07/06 08:30:32;;;;;;;5.07;2.30;;;;;;;26.73;53.15;99297.34;5054404;28;20032;-79
2023/07/06 08:33:02;;;;;;;3.65;2.10;;;;;;;26.73;53.29;99302.69;5053836;28;20029;-79
2023/07/06 08:35:29;;;;;;;5.28;2.63;;;;;;;26.74;53.26;99308.91;5052619;28;20028;-78
2023/07/06 08:37:55;;;;;;;5.53;2.83;;;;;;;26.75;53.10;99311.44;5052419;28;20068;-77
2023/07/06 08:40:24;;;;;;;4.75;2.53;;;;;;;26.74;53.13;99307.09;5052981;28;20033;-78
2023/07/06 08:42:50;;;;;;;4.20;2.60;;;;;;;26.75;53.07;99298.06;5053590;28;20033;-77
2023/07/06 08:45:19;;;;;;;5.25;2.42;;;;;;;26.76;53.02;99297.09;5054084;28;20029;-81
2023/07/06 08:47:47;;;;;;;5.45;2.53;;;;;;;26.78;53.33;99300.47;5053481;28;20083;-78
2023/07/06 08:50:15;;;;;;;3.90;2.50;;;;;;;26.79;53.46;99296.78;5053750;28;20096;-81
2023/07/06 08:52:42;;;;;;;4.07;2.40;;;;;;;26.80;53.52;99297.66;5053762;28;20044;-78
2023/07/06 08:55:13;;;;;;;4.95;2.70;;;;;;;26.81;52.95;99291.31;5053615;28;20488;-78
2023/07/06 08:57:39;;;;;;;6.55;2.83;;;;;;;26.85;53.01;99299.91;5053084;28;20059;-79
2023/07/06 09:00:15;;;;;;;5.72;2.50;;;;;;;26.85;53.08;99290.06;5053644;28;20033;-77
2023/07/06 09:02:40;;;;;;;5.88;2.20;;;;;;;26.86;52.90;99290.88;5053153;28;20037;-76
2023/07/06 09:05:13;;;;;;;5.78;2.35;;;;;;;26.85;52.84;99289.22;5053079;28;20029;-79
2023/07/06 09:07:42;;;;;;;4.57;2.28;;;;;;;26.88;52.77;99286.28;5053270;28;20021;-81
2023/07/06 09:10:17;;;;;;;4.97;2.50;;;;;;;26.88;53.14;99287.09;5053241;28;20573;-78
2023/07/06 09:12:43;;;;;;;5.13;2.45;;;;;;;26.89;52.92;99282.59;5053420;28;20032;-79
2023/07/06 09:15:09;;;;;;;3.75;2.42;;;;;;;26.92;52.89;99282.38;5053028;28;20029;-81
2023/07/06 09:17:45;;;;;;;4.40;2.20;;;;;;;26.92;53.04;99279.69;5052624;28;20048;-77
2023/07/06 09:20:12;;;;;;;4.00;2.22;;;;;;;26.94;52.59;99277.72;5052984;28;20102;-77
2023/07/06 09:22:41;;;;;;;3.75;2.70;;;;;;;26.94;52.67;99283.06;5052848;28;20059;-80
2023/07/06 09:25:17;;;;;;;5.07;2.22;;;;;;;26.96;52.99;99280.28;5052995;28;20048;-77
2023/07/06 09:27:47;;;;;;;4.80;2.40;;;;;;;26.96;52.77;99275.75;5051615;28;20043;-79
2023/07/06 09:30:32;;;;;;;4.90;2.40;;;;;;;26.94;52.84;99267.84;5052331;28;20047;-78
2023/07/06 09:33:26;;;;;;;4.53;2.08;;;;;;;26.96;52.63;99265.03;5052737;28;20029;-81
2023/07/06 09:35:54;;;;;;;5.40;2.38;;;;;;;26.99;52.73;99274.63;5050072;28;20060;-80
2023/07/06 09:38:20;;;;;;;4.90;2.47;;;;;;;26.97;52.77;99264.03;5051495;28;20576;-79
2023/07/06 09:40:46;;;;;;;4.80;2.55;;;;;;;27.00;52.56;99270.97;5052762;28;20037;-78
2023/07/06 09:43:29;;;;;;;3.83;2.20;;;;;;;27.00;52.86;99262.91;5052740;28;20029;-78
2023/07/06 09:45:56;;;;;;;3.78;2.28;;;;;;;27.01;52.52;99268.16;5052523;28;20032;-77
2023/07/06 09:48:30;;;;;;;4.40;2.40;;;;;;;27.02;52.74;99263.66;5052390;28;20111;-76
2023/07/06 09:51:01;;;;;;;5.15;2.63;;;;;;;27.01;52.42;99268.16;5052445;28;20106;-75
2023/07/06 09:53:33;;;;;;;5.43;2.42;;;;;;;27.04;52.69;99257.19;5052314;28;20493;-78
2023/07/06 09:55:58;;;;;;;3.83;2.30;;;;;;;27.06;52.38;99263.22;5034755;28;20100;-77
2023/07/06 09:58:26;;;;;;;3.95;2.15;;;;;;;27.07;52.44;99254.19;5050875;28;20127;-80
2023/07/06 10:01:16;;;;;;;5.22;2.88;;;;;;;27.07;52.49;99251.53;5052191;28;20112;-80
2023/07/06 10:03:53;;;;;;;5.15;2.45;;;;;;;27.10;52.55;99249.56;5049995;28;20043;-79
2023/07/06 10:06:36;;;;;;;4.18;2.35;;;;;;;27.10;52.31;99249.56;5050209;28;20102;-78
2023/07/06 10:09:31;;;;;;;3.83;2.25;;;;;;;27.08;52.08;99247.84;5049978;28;20045;-76
2023/07/06 10:12:06;;;;;;;4.28;2.45;;;;;;;27.11;52.18;99251.25;5047543;28;20051;-79
2023/07/06 10:14:40;;;;;;;4.20;1.93;;;;;;;27.11;52.34;99252.09;5049620;28;20460;-77
2023/07/06 10:17:19;;;;;;;4.40;2.15;;;;;;;27.15;51.95;99252.66;5033326;28;20267;-77
2023/07/06 10:19:59;;;;;;;4.55;2.40;;;;;;;27.15;52.31;99258.00;5049789;28;20025;-79
2023/07/06 10:22:37;;;;;;;5.68;2.38;;;;;;;27.17;52.34;99258.75;5049772;28;20072;-79
2023/07/06 10:25:11;;;;;;;5.60;2.53;;;;;;;27.15;52.26;99258.00;5049857;28;20036;-76
2023/07/06 10:27:44;;;;;;;4.00;2.28;;;;;;;27.16;51.97;99259.72;5049421;28;20107;-79
2023/07/06 10:30:31;;;;;;;5.68;2.47;;;;;;;27.16;51.82;99260.56;5049597;28;20532;-80
2023/07/06 10:33:01;;;;;;;5.57;2.20;;;;;;;27.17;51.88;99251.53;5049787;28;20075;-79
2023/07/06 10:35:32;;;;;;;5.20;2.25;;;;;;;27.21;51.80;99257.44;5049264;28;20052;-78
2023/07/06 10:37:58;;;;;;;4.55;2.45;;;;;;;27.23;51.97;99254.63;5049591;28;20033;-79
2023/07/06 10:40:28;;;;;;;4.60;2.17;;;;;;;27.21;52.00;99257.44;5043609;28;20491;-79
2023/07/06 10:43:14;;;;;;;4.65;2.28;;;;;;;27.24;51.87;99257.19;5030437;28;20025;-79
2023/07/06 10:45:42;;;;;;;4.83;2.50;;;;;;;27.26;51.97;99244.50;5027804;28;20494;-77
2023/07/06 10:48:26;;;;;;;4.55;2.22;;;;;;;27.28;52.12;99247.91;5042213;28;20116;-76
2023/07/06 10:51:04;;;;;;;3.25;2.03;;;;;;;27.28;51.70;99249.72;5051679;28;20548;-77
2023/07/06 10:53:39;;;;;;;4.45;2.55;;;;;;;27.29;52.12;99249.59;5051877;28;20214;-80
2023/07/06 10:56:11;;;;;;;7.27;2.23;;;;;;;27.29;51.71;99244.22;5051792;28;20025;-79
2023/07/06 10:58:54;;;;;;;4.28;2.35;;;;;;;27.31;51.69;99239.56;5051356;28;20067;-78
2023/07/06 11:01:21;;;;;;;4.20;2.30;;;;;;;27.34;51.78;99236.63;5051720;28;20511;-79
2023/07/06 11:03:47;;;;;;;5.72;2.30;;;;;;;27.36;51.64;99223.09;5055678;28;20017;-79
2023/07/06 11:06:44;;;;;;;4.40;2.05;;;;;;;27.40;51.96;99234.34;5055518;28;20028;-76
2023/07/06 11:09:13;;;;;;;5.90;2.55;;;;;;;27.42;51.89;99227.00;5056007;28;20017;-79
2023/07/06 11:11:49;;;;;;;3.80;1.80;;;;;;;27.44;51.88;99230.38;5055537;28;20334;-80
2023/07/06 11:14:38;;;;;;;3.23;2.00;;;;;;;27.44;51.67;99230.38;5054567;28;20052;-77
2023/07/06 11:17:10;;;;;;;4.90;2.20;;;;;;;27.42;52.00;99222.50;5055488;28;20044;-78
2023/07/06 11:19:57;;;;;;;5.72;2.60;;;;;;;27.43;51.91;99217.97;5055531;28;20393;-79
2023/07/06 11:22:24;;;;;;;4.60;2.15;;;;;;;27.43;51.57;99221.53;5055532;28;20033;-77
2023/07/06 11:24:59;;;;;;;5.43;2.33;;;;;;;27.45;51.60;99222.22;5055246;28;20470;-78
2023/07/06 11:27:30;;;;;;;5.97;2.13;;;;;;;27.47;51.89;99235.47;5053499;28;20392;-80
2023/07/06 11:30:03;;;;;;;5.47;2.35;;;;;;;27.47;51.47;99224.75;5054663;28;20029;-78
2023/07/06 11:33:13;;;;;;;5.95;2.72;;;;;;;27.46;51.47;99234.63;5035470;28;20429;-80
2023/07/06 11:36:00;;;;;;;5.95;2.30;;;;;;;27.50;51.56;99223.63;5034890;28;20490;-79
2023/07/06 11:38:34;;;;;;;4.28;2.20;;;;;;;27.51;51.46;99219.97;5035059;28;20057;-80
2023/07/06 11:41:10;;;;;;;3.92;2.08;;;;;;;27.53;51.51;99213.47;5035422;28;20025;-77
2023/07/06 11:43:43;;;;;;;5.72;2.60;;;;;;;27.57;51.67;99214.88;5055002;28;20051;-76